Time,TemperatureF,DewpointF,PressureIn,WindDirection,WindDirectionDegrees,WindSpeedMPH,WindSpeedGustMPH,Humidity,HourlyPrecipIn,Conditions,Clouds,dailyrainin,SoftwareType,DateUTC
2013-05-17 00:02:00,54.0,50.0,29.94,South,187,0.0,6.0,86,0.00,,,0.01,,2013-05-17 07:02:00,
2013-05-17 00:11:00,54.0,50.0,29.94,South,187,0.0,6.0,86,0.00,,,0.01,,2013-05-17 07:11:00,
2013-05-17 00:21:00,54.0,51.0,29.94,SSW,198,0.0,5.0,88,0.00,,,0.01,,2013-05-17 07:21:00,
2013-05-17 00:32:00,54.0,51.0,29.95,South,183,0.0,4.0,88,0.00,,,0.01,,2013-05-17 07:32:00,
2013-05-17 00:43:00,54.0,51.0,29.95,South,183,0.0,4.0,88,0.00,,,0.01,,2013-05-17 07:43:00,
2013-05-17 00:53:00,53.0,50.0,29.95,ESE,121,0.0,4.0,89,0.00,,,0.01,,2013-05-17 07:53:00,
2013-05-17 01:02:00,53.0,50.0,29.95,SSW,204,0.0,5.0,88,0.00,,,0.01,,2013-05-17 08:02:00,
2013-05-17 01:12:00,53.0,50.0,29.95,SSW,204,0.0,5.0,88,0.00,,,0.01,,2013-05-17 08:12:00,
2013-05-17 01:22:00,53.0,50.0,29.95,SSW,204,1.0,6.0,88,0.00,,,0.01,,2013-05-17 08:22:00,
2013-05-17 01:33:00,53.0,50.0,29.95,SSW,192,1.0,6.0,88,0.00,,,0.01,,2013-05-17 08:33:00,
2013-05-17 01:42:00,53.0,50.0,29.95,SSW,192,1.0,6.0,88,0.00,,,0.01,,2013-05-17 08:42:00,
2013-05-17 01:52:00,53.0,50.0,29.95,South,190,1.0,7.0,89,0.00,,,0.01,,2013-05-17 08:52:00,
2013-05-17 02:02:00,52.0,49.0,29.95,ESE,106,0.0,2.0,90,0.00,,,0.01,,2013-05-17 09:02:00,
2013-05-17 02:12:00,52.0,49.0,29.95,ESE,106,0.0,2.0,90,0.00,,,0.01,,2013-05-17 09:12:00,
2013-05-17 02:22:00,52.0,50.0,29.95,ENE,70,0.0,1.0,93,0.00,,,0.01,,2013-05-17 09:22:00,
2013-05-17 02:33:00,51.0,50.0,29.95,ENE,77,0.0,0.0,96,0.00,,,0.01,,2013-05-17 09:33:00,
2013-05-17 02:42:00,51.0,50.0,29.95,ENE,77,0.0,0.0,96,0.00,,,0.01,,2013-05-17 09:42:00,
2013-05-17 02:53:00,51.0,50.0,29.95,ENE,76,0.0,1.0,97,0.01,,,0.02,,2013-05-17 09:53:00,
2013-05-17 03:03:00,51.0,50.0,29.95,South,188,0.0,3.0,98,0.01,,,0.02,,2013-05-17 10:03:00,
2013-05-17 03:12:00,51.0,50.0,29.95,South,188,0.0,3.0,98,0.01,,,0.02,,2013-05-17 10:12:00,
2013-05-17 03:23:00,51.0,51.0,29.95,South,188,0.0,1.0,99,0.02,,,0.03,,2013-05-17 10:23:00,
2013-05-17 03:32:00,51.0,51.0,29.95,SSW,192,0.0,1.0,99,0.02,,,0.03,,2013-05-17 10:32:00,
2013-05-17 03:42:00,51.0,51.0,29.95,SSW,192,0.0,1.0,99,0.02,,,0.03,,2013-05-17 10:42:00,
2013-05-17 03:54:00,51.0,51.0,29.95,East,91,0.0,1.0,99,0.01,,,0.03,,2013-05-17 10:54:00,
2013-05-17 04:02:00,51.0,51.0,29.95,East,91,0.0,0.0,100,0.01,,,0.03,,2013-05-17 11:02:00,
2013-05-17 04:12:00,51.0,51.0,29.95,East,91,0.0,0.0,100,0.01,,,0.03,,2013-05-17 11:12:00,
2013-05-17 04:22:00,51.0,51.0,29.95,SSW,211,0.0,2.0,100,0.01,,,0.04,,2013-05-17 11:22:00,
2013-05-17 04:33:00,51.0,51.0,29.95,SSW,211,0.0,0.0,100,0.01,,,0.03,,2013-05-17 11:33:00,
2013-05-17 04:42:00,51.0,51.0,29.95,SSW,211,0.0,0.0,100,0.01,,,0.03,,2013-05-17 11:42:00,
2013-05-17 04:53:00,51.0,51.0,29.95,SSW,211,0.0,0.0,100,0.01,,,0.03,,2013-05-17 11:53:00,
2013-05-17 05:02:00,51.0,51.0,29.96,SSW,211,0.0,0.0,100,0.01,,,0.03,,2013-05-17 12:02:00,
2013-05-17 05:12:00,51.0,51.0,29.96,SSW,211,0.0,0.0,100,0.01,,,0.03,,2013-05-17 12:12:00,
2013-05-17 05:23:00,51.0,51.0,29.96,SSW,211,0.0,0.0,100,0.00,,,0.03,,2013-05-17 12:23:00,
2013-05-17 05:32:00,51.0,51.0,29.96,SSW,211,0.0,2.0,100,0.00,,,0.03,,2013-05-17 12:32:00,
2013-05-17 05:42:00,51.0,51.0,29.96,SSW,211,0.0,2.0,100,0.00,,,0.03,,2013-05-17 12:42:00,
2013-05-17 05:53:00,51.0,51.0,29.96,SSW,211,0.0,1.0,100,0.00,,,0.03,,2013-05-17 12:53:00,
2013-05-17 06:03:00,51.0,51.0,29.96,SSW,211,1.0,3.0,100,0.00,,,0.03,,2013-05-17 13:03:00,
2013-05-17 06:12:00,51.0,51.0,29.96,SSW,211,1.0,3.0,100,0.00,,,0.03,,2013-05-17 13:12:00,
2013-05-17 06:23:00,51.0,51.0,29.96,SSW,213,0.0,3.0,100,0.00,,,0.03,,2013-05-17 13:23:00,
2013-05-17 06:33:00,51.0,51.0,29.96,SSW,213,0.0,2.0,100,0.00,,,0.03,,2013-05-17 13:33:00,
2013-05-17 06:42:00,51.0,51.0,29.96,SSW,213,0.0,2.0,100,0.00,,,0.03,,2013-05-17 13:42:00,
2013-05-17 06:52:00,51.0,51.0,29.96,SW,215,0.0,3.0,100,0.00,,,0.03,,2013-05-17 13:52:00,
2013-05-17 07:01:00,51.0,51.0,29.97,SW,234,1.0,3.0,100,0.01,,,0.04,,2013-05-17 14:01:00,
2013-05-17 07:12:00,51.0,51.0,29.97,SW,234,1.0,3.0,100,0.01,,,0.04,,2013-05-17 14:12:00,
2013-05-17 07:22:00,52.0,52.0,29.97,SSW,198,0.0,3.0,100,0.01,,,0.04,,2013-05-17 14:22:00,
2013-05-17 07:34:00,52.0,52.0,29.97,SSW,205,1.0,3.0,100,0.02,,,0.05,,2013-05-17 14:34:00,
2013-05-17 07:42:00,52.0,52.0,29.97,SSW,205,1.0,3.0,100,0.02,,,0.05,,2013-05-17 14:42:00,
2013-05-17 07:53:00,52.0,52.0,29.97,SW,217,0.0,3.0,100,0.02,,,0.05,,2013-05-17 14:53:00,
2013-05-17 08:03:00,52.0,52.0,29.97,SW,217,0.0,3.0,100,0.01,,,0.05,,2013-05-17 15:03:00,
2013-05-17 08:13:00,52.0,52.0,29.97,SW,217,0.0,3.0,100,0.01,,,0.05,,2013-05-17 15:13:00,
2013-05-17 08:25:00,52.0,52.0,29.98,SSW,203,0.0,1.0,100,0.01,,,0.05,,2013-05-17 15:25:00,
2013-05-17 08:37:00,52.0,52.0,29.98,SSW,195,0.0,2.0,100,0.00,,,0.05,,2013-05-17 15:37:00,
2013-05-17 08:47:00,52.0,52.0,29.98,SSW,195,0.0,2.0,100,0.00,,,0.05,,2013-05-17 15:47:00,
2013-05-17 08:57:00,52.0,52.0,29.98,SW,223,1.0,6.0,99,0.00,,,0.05,,2013-05-17 15:57:00,
2013-05-17 09:07:00,53.0,53.0,29.98,SE,145,0.0,0.0,99,0.00,,,0.05,,2013-05-17 16:07:00,
2013-05-17 09:13:00,53.0,53.0,29.98,SE,145,0.0,0.0,99,0.00,,,0.05,,2013-05-17 16:13:00,
2013-05-17 09:26:00,53.0,52.0,29.98,SE,145,0.0,1.0,98,0.00,,,0.05,,2013-05-17 16:26:00,
2013-05-17 09:37:00,54.0,53.0,29.97,SSW,196,0.0,3.0,97,0.00,,,0.05,,2013-05-17 16:37:00,
2013-05-17 09:49:00,54.0,53.0,29.97,SSW,196,0.0,3.0,97,0.00,,,0.05,,2013-05-17 16:49:00,
2013-05-17 09:56:00,54.0,53.0,29.97,South,187,0.0,4.0,96,0.00,,,0.05,,2013-05-17 16:56:00,
2013-05-17 10:07:00,54.0,52.0,29.98,SSW,198,0.0,3.0,94,0.00,,,0.05,,2013-05-17 17:07:00,
2013-05-17 10:18:00,54.0,52.0,29.98,SSW,198,0.0,3.0,94,0.00,,,0.05,,2013-05-17 17:18:00,
2013-05-17 10:29:00,54.0,52.0,29.98,SSW,205,2.0,8.0,92,0.01,,,0.06,,2013-05-17 17:29:00,
2013-05-17 10:40:00,54.0,-99.9,29.98,SSW,208,1.0,6.0,91,0.01,,,0.06,,2013-05-17 17:40:00,
2013-05-17 10:48:00,54.0,51.0,29.98,SSW,208,1.0,6.0,91,0.01,,,0.06,,2013-05-17 17:48:00,
2013-05-17 11:00:00,55.0,52.0,29.98,SSW,194,0.0,5.0,90,0.01,,,0.06,,2013-05-17 18:00:00,
2013-05-17 11:08:00,55.0,52.0,29.98,SSW,194,0.0,2.0,91,0.01,,,0.06,,2013-05-17 18:08:00,
2013-05-17 11:20:00,55.0,52.0,29.98,SSW,194,0.0,2.0,91,0.01,,,0.06,,2013-05-17 18:20:00,
2013-05-17 11:30:00,55.0,52.0,29.99,SW,226,0.0,1.0,89,0.00,,,0.06,,2013-05-17 18:30:00,
2013-05-17 11:40:00,55.0,52.0,29.99,SW,225,0.0,3.0,88,0.00,,,0.06,,2013-05-17 18:40:00,
2013-05-17 11:50:00,-999.0,-99.9,29.99,SW,225,0.0,3.0,88,0.00,,,0.06,,2013-05-17 18:50:00,
2013-05-17 12:00:00,56.0,53.0,29.99,SW,228,0.0,2.0,89,0.00,,,0.06,,2013-05-17 19:00:00,
2013-05-17 12:10:00,55.0,52.0,29.99,SSW,198,0.0,3.0,89,0.00,,,0.06,,2013-05-17 19:10:00,
2013-05-17 12:20:00,55.0,52.0,29.99,SSW,198,0.0,3.0,89,0.00,,,0.06,,2013-05-17 19:20:00,
2013-05-17 12:30:00,55.0,52.0,29.99,SSW,198,0.0,0.0,91,0.00,,,0.06,,2013-05-17 19:30:00,
2013-05-17 12:40:00,54.0,52.0,29.99,SSW,198,0.0,1.0,92,0.00,,,0.06,,2013-05-17 19:40:00,
2013-05-17 12:50:00,54.0,52.0,29.99,SSW,198,0.0,1.0,92,0.00,,,0.06,,2013-05-17 19:50:00,
2013-05-17 13:00:00,54.0,-99.9,29.99,SSW,197,0.0,0.0,93,0.00,,,0.06,,2013-05-17 20:00:00,
2013-05-17 13:09:00,55.0,53.0,29.99,SSW,197,0.0,0.0,93,0.00,,,0.06,,2013-05-17 20:09:00,
2013-05-17 13:20:00,55.0,53.0,29.99,SSW,197,0.0,0.0,93,0.00,,,0.06,,2013-05-17 20:20:00,
2013-05-17 13:30:00,55.0,52.0,29.99,SSE,152,0.0,1.0,91,0.01,,,0.07,,2013-05-17 20:30:00,
2013-05-17 13:40:00,56.0,52.0,29.99,ENE,74,1.0,4.0,87,0.01,,,0.07,,2013-05-17 20:40:00,
2013-05-17 13:49:00,56.0,52.0,29.99,ENE,74,1.0,4.0,87,0.01,,,0.07,,2013-05-17 20:49:00,
2013-05-17 13:58:00,58.0,54.0,29.99,SE,138,0.0,0.0,85,0.01,,,0.07,,2013-05-17 20:58:00,
2013-05-17 14:07:00,58.0,50.0,29.98,SSW,205,2.0,5.0,74,0.01,,,0.07,,2013-05-17 21:07:00,
2013-05-17 14:16:00,58.0,50.0,29.98,SSW,205,2.0,5.0,74,0.01,,,0.07,,2013-05-17 21:16:00,
2013-05-17 14:25:00,59.0,51.0,29.99,SSW,192,0.0,4.0,74,0.00,,,0.07,,2013-05-17 21:25:00,
2013-05-17 14:39:00,59.0,50.0,29.99,SSW,201,1.0,6.0,72,0.00,,,0.07,,2013-05-17 21:39:00,
2013-05-17 14:49:00,59.0,50.0,29.99,SSW,201,1.0,6.0,72,0.00,,,0.07,,2013-05-17 21:49:00,
2013-05-17 14:58:00,59.0,50.0,29.99,SSW,213,1.0,4.0,71,0.00,,,0.07,,2013-05-17 21:58:00,
2013-05-17 15:06:00,59.0,50.0,29.99,SW,219,1.0,3.0,73,0.00,,,0.07,,2013-05-17 22:06:00,
2013-05-17 15:16:00,59.0,50.0,29.99,SW,219,1.0,3.0,73,0.00,,,0.07,,2013-05-17 22:16:00,
2013-05-17 15:28:00,59.0,50.0,29.99,SSW,192,1.0,4.0,73,0.00,,,0.07,,2013-05-17 22:28:00,
2013-05-17 15:37:00,59.0,51.0,29.99,South,189,0.0,1.0,75,0.00,,,0.07,,2013-05-17 22:37:00,
2013-05-17 15:47:00,59.0,51.0,29.99,South,189,0.0,1.0,75,0.00,,,0.07,,2013-05-17 22:47:00,
2013-05-17 15:55:00,59.0,51.0,29.98,East,96,0.0,3.0,74,0.00,,,0.07,,2013-05-17 22:55:00,
2013-05-17 16:04:00,59.0,51.0,29.98,ENE,67,0.0,2.0,74,0.00,,,0.07,,2013-05-17 23:04:00,
2013-05-17 16:12:00,59.0,51.0,29.98,ENE,67,0.0,2.0,74,0.00,,,0.07,,2013-05-17 23:12:00,
2013-05-17 16:23:00,60.0,52.0,29.98,East,92,0.0,5.0,75,0.00,,,0.07,,2013-05-17 23:23:00,
2013-05-17 16:37:00,60.0,51.0,29.98,East,92,0.0,2.0,73,0.00,,,0.07,,2013-05-17 23:37:00,
2013-05-17 16:47:00,60.0,51.0,29.98,East,92,0.0,2.0,73,0.00,,,0.07,,2013-05-17 23:47:00,
2013-05-17 16:54:00,60.0,52.0,29.98,East,82,0.0,1.0,74,0.00,,,0.07,,2013-05-17 23:54:00,
2013-05-17 17:02:00,60.0,51.0,29.98,SE,130,0.0,3.0,73,0.00,,,0.07,,2013-05-18 00:02:00,
2013-05-17 17:13:00,60.0,51.0,29.98,SE,130,0.0,3.0,73,0.00,,,0.07,,2013-05-18 00:13:00,
2013-05-17 17:21:00,59.0,50.0,29.98,ESE,115,0.0,2.0,73,0.00,,,0.07,,2013-05-18 00:21:00,
2013-05-17 17:33:00,59.0,51.0,29.98,SW,218,0.0,5.0,74,0.00,,,0.07,,2013-05-18 00:33:00,
2013-05-17 17:44:00,59.0,51.0,29.98,SW,218,0.0,5.0,74,0.00,,,0.07,,2013-05-18 00:44:00,
2013-05-17 17:54:00,60.0,52.0,29.98,ESE,104,0.0,2.0,74,0.00,,,0.07,,2013-05-18 00:54:00,
2013-05-17 18:02:00,59.0,50.0,29.99,SSW,211,2.0,4.0,72,0.00,,,0.07,,2013-05-18 01:02:00,
2013-05-17 18:13:00,59.0,50.0,29.99,SSW,211,2.0,4.0,72,0.00,,,0.07,,2013-05-18 01:13:00,
2013-05-17 18:24:00,58.0,50.0,29.99,South,190,1.0,5.0,75,0.00,,,0.07,,2013-05-18 01:24:00,
2013-05-17 18:31:00,57.0,51.0,29.99,SSE,150,0.0,3.0,81,0.00,,,0.07,,2013-05-18 01:31:00,
2013-05-17 18:42:00,57.0,51.0,29.99,SSE,150,0.0,3.0,81,0.00,,,0.07,,2013-05-18 01:42:00,
2013-05-17 18:52:00,57.0,52.0,29.99,SW,225,0.0,3.0,82,0.00,,,0.07,,2013-05-18 01:52:00,
2013-05-17 19:02:00,57.0,52.0,29.99,SSW,199,0.0,4.0,82,0.00,,,0.07,,2013-05-18 02:02:00,
2013-05-17 19:11:00,57.0,52.0,29.99,SSW,199,0.0,4.0,82,0.00,,,0.07,,2013-05-18 02:11:00,
2013-05-17 19:22:00,58.0,52.0,29.99,ESE,108,0.0,1.0,81,0.00,,,0.07,,2013-05-18 02:22:00,
2013-05-17 19:31:00,57.0,51.0,29.99,South,172,0.0,4.0,81,0.00,,,0.07,,2013-05-18 02:31:00,
2013-05-17 19:42:00,57.0,51.0,29.99,South,172,0.0,4.0,81,0.00,,,0.07,,2013-05-18 02:42:00,
2013-05-17 19:53:00,57.0,52.0,30.00,SSW,194,2.0,7.0,82,0.00,,,0.07,,2013-05-18 02:53:00,
2013-05-17 20:02:00,57.0,52.0,30.00,SSW,211,2.0,9.0,82,0.00,,,0.07,,2013-05-18 03:02:00,
2013-05-17 20:11:00,57.0,52.0,30.00,SSW,211,2.0,9.0,82,0.00,,,0.07,,2013-05-18 03:11:00,
2013-05-17 20:22:00,56.0,51.0,30.00,SSW,199,1.0,4.0,84,0.00,,,0.07,,2013-05-18 03:22:00,
2013-05-17 20:32:00,55.0,51.0,30.01,SW,229,0.0,1.0,87,0.00,,,0.07,,2013-05-18 03:32:00,
2013-05-17 20:43:00,55.0,51.0,30.01,SW,229,0.0,1.0,87,0.00,,,0.07,,2013-05-18 03:43:00,
2013-05-17 20:53:00,55.0,52.0,30.01,SW,229,0.0,1.0,90,0.00,,,0.07,,2013-05-18 03:53:00,
2013-05-17 21:02:00,55.0,52.0,30.01,SW,229,0.0,0.0,90,0.00,,,0.07,,2013-05-18 04:02:00,
2013-05-17 21:12:00,55.0,52.0,30.01,SW,229,0.0,0.0,90,0.00,,,0.07,,2013-05-18 04:12:00,
2013-05-17 21:22:00,55.0,52.0,30.02,SSW,198,0.0,1.0,90,0.00,,,0.07,,2013-05-18 04:22:00,
2013-05-17 21:32:00,54.0,51.0,30.02,South,175,0.0,1.0,91,0.00,,,0.07,,2013-05-18 04:32:00,
2013-05-17 21:42:00,54.0,51.0,30.02,South,175,0.0,1.0,91,0.00,,,0.07,,2013-05-18 04:42:00,
2013-05-17 21:52:00,54.0,52.0,30.03,ESE,111,0.0,2.0,93,0.00,,,0.07,,2013-05-18 04:52:00,
2013-05-17 22:02:00,53.0,51.0,30.03,ESE,112,0.0,1.0,94,0.00,,,0.07,,2013-05-18 05:02:00,
2013-05-17 22:12:00,53.0,51.0,30.03,ESE,112,0.0,1.0,94,0.00,,,0.07,,2013-05-18 05:12:00,
2013-05-17 22:21:00,53.0,51.0,30.03,ESE,112,0.0,0.0,94,0.00,,,0.07,,2013-05-18 05:21:00,
2013-05-17 22:31:00,52.0,51.0,30.04,ESE,111,0.0,0.0,95,0.00,,,0.07,,2013-05-18 05:31:00,
2013-05-17 22:41:00,52.0,51.0,30.04,ESE,111,0.0,0.0,95,0.00,,,0.07,,2013-05-18 05:41:00,
2013-05-17 22:52:00,52.0,50.0,30.04,SSW,203,0.0,3.0,94,0.00,,,0.07,,2013-05-18 05:52:00,
2013-05-17 23:01:00,52.0,50.0,30.04,SW,223,0.0,1.0,92,0.00,,,0.07,,2013-05-18 06:01:00,
2013-05-17 23:11:00,52.0,50.0,30.04,SW,223,0.0,1.0,92,0.00,,,0.07,,2013-05-18 06:11:00,
2013-05-17 23:22:00,52.0,50.0,30.04,WSW,238,0.0,2.0,92,0.00,,,0.07,,2013-05-18 06:22:00,
2013-05-17 23:31:00,52.0,49.0,30.04,South,186,0.0,3.0,91,0.00,,,0.07,,2013-05-18 06:31:00,
2013-05-17 23:41:00,52.0,49.0,30.04,South,186,0.0,3.0,91,0.00,,,0.07,,2013-05-18 06:41:00,
2013-05-17 23:52:00,52.0,49.0,30.04,SW,233,0.0,2.0,91,0.00,,,0.07,,2013-05-18 06:52:00,